Time;durP1;ratioP1;P1;durP2;ratioP2;P2;SDS_P1;SDS_P2;PMS_P1;PMS_P2;Temp;Humidity;BMP_temperature;BMP_pressure;BME280_temperature;BME280_humidity;BME280_pressure;Samples;Min_cycle;Max_cycle;Signal;HPM_P1;HPM_P2
2022/01/04 00:00:49;;;;;;;;;;;9.30;99.90;;;;;;4263644;33;20404;-84
2022/01/04 00:03:22;;;;;;;;;;;9.20;99.90;;;;;;4286950;33;20379;-84
2022/01/04 00:05:52;;;;;;;;;;;9.30;99.90;;;;;;4288273;33;20019;-84
2022/01/04 00:08:23;;;;;;;;;;;9.30;99.90;;;;;;4274082;33;30658;-84
2022/01/04 00:10:54;;;;;;;;;;;9.30;99.90;;;;;;4273472;33;46739;-84
2022/01/04 00:13:23;;;;;;;;;;;9.20;99.90;;;;;;4274608;33;28466;-84
2022/01/04 00:15:54;;;;;;;;;;;9.20;99.90;;;;;;4273599;33;46825;-84
2022/01/04 00:18:22;;;;;;;;;;;9.20;99.90;;;;;;4287408;33;38481;-84
2022/01/04 00:20:49;;;;;;;;;;;9.20;99.90;;;;;;4287277;33;38856;-84
2022/01/04 00:23:17;;;;;;;;;;;9.20;99.90;;;;;;4274138;33;39151;-84
2022/01/04 00:25:44;;;;;;;;;;;9.20;99.90;;;;;;4287041;33;41315;-84
2022/01/04 00:28:11;;;;;;;;;;;9.20;99.90;;;;;;4274532;33;27644;-84
2022/01/04 00:30:39;;;;;;;;;;;9.20;99.90;;;;;;4273946;33;32839;-84
2022/01/04 00:33:12;;;;;;;;;;;9.20;99.90;;;;;;4274258;33;43482;-84
2022/01/04 00:35:39;;;;;;;;;;;9.20;99.90;;;;;;4273502;33;46732;-84
2022/01/04 00:38:07;;;;;;;;;;;9.20;99.90;;;;;;4287340;33;27428;-84
2022/01/04 00:40:34;;;;;;;;;;;9.10;99.90;;;;;;4288223;33;20170;-84
2022/01/04 00:43:05;;;;;;;;;;;9.20;99.90;;;;;;4287022;33;34336;-83
2022/01/04 00:45:33;;;;;;;;;;;9.10;99.90;;;;;;4274161;33;43187;-84
2022/01/04 00:50:28;;;;;;;;;;;9.10;99.90;;;;;;4273558;33;37715;-83
2022/01/04 00:52:56;;;;;;;;;;;9.10;99.90;;;;;;4286862;33;41700;-84
2022/01/04 00:55:23;;;;;;;;;;;9.10;99.90;;;;;;4261964;33;35045;-84
2022/01/04 00:57:50;;;;;;;;;;;9.10;99.90;;;;;;4274082;33;24167;-83
2022/01/04 01:00:20;;;;;;;;;;;9.10;99.90;;;;;;4289590;33;25347;-84
2022/01/04 01:02:48;;;;;;;;;;;9.10;99.90;;;;;;4275894;33;40773;-84
2022/01/04 01:05:16;;;;;;;;;;;9.10;99.90;;;;;;4276769;33;23741;-83
2022/01/04 01:07:43;;;;;;;;;;;9.00;99.90;;;;;;4275976;33;41043;-84
2022/01/04 01:12:48;;;;;;;;;;;9.00;99.90;;;;;;4276050;33;42617;-84
2022/01/04 01:15:18;;;;;;;;;;;9.00;99.90;;;;;;4289514;33;30525;-83
2022/01/04 01:17:45;;;;;;;;;;;9.00;99.90;;;;;;4277487;33;20026;-84
2022/01/04 01:20:13;;;;;;;;;;;9.00;99.90;;;;;;4275868;33;41794;-84
2022/01/04 01:22:41;;;;;;;;;;;9.00;99.90;;;;;;4275860;33;45546;-84
2022/01/04 01:25:09;;;;;;;;;;;9.00;99.90;;;;;;4277448;33;20086;-83
2022/01/04 01:27:36;;;;;;;;;;;9.00;99.90;;;;;;4276336;33;43975;-84
2022/01/04 01:30:04;;;;;;;;;;;9.00;99.90;;;;;;4276140;33;28763;-84
2022/01/04 01:32:31;;;;;;;;;;;9.00;99.90;;;;;;4288784;33;36879;-84
2022/01/04 01:34:58;;;;;;;;;;;9.00;99.90;;;;;;4276021;33;43974;-83
2022/01/04 01:37:25;;;;;;;;;;;9.00;99.90;;;;;;4275685;33;44688;-83
2022/01/04 01:39:52;;;;;;;;;;;9.00;99.90;;;;;;4288935;33;36104;-83
2022/01/04 01:42:19;;;;;;;;;;;9.00;99.90;;;;;;4264116;33;44817;-83
2022/01/04 01:44:46;;;;;;;;;;;8.90;99.90;;;;;;4275981;33;36452;-84
2022/01/04 01:47:13;;;;;;;;;;;9.00;99.90;;;;;;4288859;33;40825;-84
2022/01/04 01:49:40;;;;;;;;;;;9.00;99.90;;;;;;4288779;33;31258;-84
2022/01/04 01:52:07;;;;;;;;;;;9.00;99.90;;;;;;4265031;33;20017;-83
2022/01/04 01:54:34;;;;;;;;;;;9.00;99.90;;;;;;4276026;33;36674;-83
2022/01/04 01:57:01;;;;;;;;;;;9.00;99.90;;;;;;4275401;33;39253;-83
2022/01/04 01:59:29;;;;;;;;;;;9.00;99.90;;;;;;4288298;33;42644;-83
2022/01/04 02:01:56;;;;;;;;;;;9.00;99.90;;;;;;4275704;33;24548;-84
2022/01/04 02:04:24;;;;;;;;;;;9.00;99.90;;;;;;4288283;33;44297;-84
2022/01/04 02:06:51;;;;;;;;;;;9.00;99.90;;;;;;4276138;33;20057;-84
2022/01/04 02:09:20;;;;;;;;;;;9.00;99.90;;;;;;4275260;33;43677;-83
2022/01/04 02:11:48;;;;;;;;;;;9.00;99.90;;;;;;4275997;33;29374;-83
2022/01/04 02:14:16;;;;;;;;;;;9.00;99.90;;;;;;4275645;33;35139;-83
2022/01/04 02:16:43;;;;;;;;;;;9.00;99.90;;;;;;4263612;33;38870;-84
2022/01/04 02:19:10;;;;;;;;;;;9.00;99.90;;;;;;4275801;33;33334;-84
2022/01/04 02:21:37;;;;;;;;;;;9.00;99.90;;;;;;4275256;33;34767;-83
2022/01/04 02:24:04;;;;;;;;;;;9.00;99.90;;;;;;4263980;33;29380;-84
2022/01/04 02:26:32;;;;;;;;;;;9.00;99.90;;;;;;4288371;33;43109;-83
2022/01/04 02:29:00;;;;;;;;;;;9.00;99.90;;;;;;4288261;33;44114;-84
2022/01/04 02:31:27;;;;;;;;;;;9.00;99.90;;;;;;4263259;33;43843;-83
2022/01/04 02:33:54;;;;;;;;;;;9.00;99.90;;;;;;4275132;33;41980;-83
2022/01/04 02:36:21;;;;;;;;;;;9.00;99.90;;;;;;4275438;33;35842;-84
2022/01/04 02:38:50;;;;;;;;;;;9.00;99.90;;;;;;4263736;33;32447;-84
2022/01/04 02:41:18;;;;;;;;;;;9.00;99.90;;;;;;4288167;33;38322;-84
2022/01/04 02:43:45;;;;;;;;;;;9.00;99.90;;;;;;4275231;33;24950;-84
2022/01/04 02:46:12;;;;;;;;;;;9.00;99.90;;;;;;4274693;33;41380;-84
2022/01/04 02:48:41;;;;;;;;;;;9.00;99.90;;;;;;4288636;33;29169;-84
2022/01/04 02:51:08;;;;;;;;;;;9.00;99.90;;;;;;4274748;33;41768;-84
2022/01/04 02:53:35;;;;;;;;;;;9.00;99.90;;;;;;4275066;33;42685;-83
2022/01/04 02:56:02;;;;;;;;;;;9.00;99.90;;;;;;4275198;33;35280;-83
2022/01/04 02:58:29;;;;;;;;;;;9.00;99.90;;;;;;4274962;33;38116;-84
2022/01/04 03:00:56;;;;;;;;;;;9.00;99.90;;;;;;4275204;33;32610;-84
2022/01/04 03:03:24;;;;;;;;;;;8.90;99.90;;;;;;4274713;33;43267;-83
2022/01/04 03:05:52;;;;;;;;;;;8.90;99.90;;;;;;4275251;33;24450;-83
2022/01/04 03:08:19;;;;;;;;;;;8.90;99.90;;;;;;4275170;33;34327;-83
2022/01/04 03:10:46;;;;;;;;;;;8.90;99.90;;;;;;4287899;33;37471;-85
2022/01/04 03:13:16;;;;;;;;;;;8.90;99.90;;;;;;4263521;33;35433;-84
2022/01/04 03:15:44;;;;;;;;;;;8.90;99.90;;;;;;4286438;33;42719;-84
2022/01/04 03:18:11;;;;;;;;;;;8.90;99.90;;;;;;4262798;33;38071;-84
2022/01/04 03:20:38;;;;;;;;;;;8.90;99.90;;;;;;4287439;33;34118;-84
2022/01/04 03:23:09;;;;;;;;;;;8.80;99.90;;;;;;4275000;33;35365;-84
2022/01/04 03:25:36;;;;;;;;;;;8.80;99.90;;;;;;4287619;33;42359;-84
2022/01/04 03:28:08;;;;;;;;;;;8.80;99.90;;;;;;4276300;33;20042;-84
2022/01/04 03:30:35;;;;;;;;;;;8.80;99.90;;;;;;4287435;33;29678;-84
2022/01/04 03:33:02;;;;;;;;;;;8.80;99.90;;;;;;4288225;33;20414;-83
2022/01/04 03:35:30;;;;;;;;;;;8.80;99.90;;;;;;4287820;33;29672;-83
2022/01/04 03:37:57;;;;;;;;;;;8.80;99.90;;;;;;4274636;33;36487;-84
2022/01/04 03:40:24;;;;;;;;;;;8.80;99.90;;;;;;4274035;33;37061;-84
2022/01/04 03:42:54;;;;;;;;;;;8.80;99.90;;;;;;4288730;33;20086;-84
2022/01/04 03:45:24;;;;;;;;;;;8.70;99.90;;;;;;4274278;33;36029;-83
2022/01/04 03:47:51;;;;;;;;;;;8.70;99.90;;;;;;4274061;33;40298;-84
2022/01/04 03:50:18;;;;;;;;;;;8.70;99.90;;;;;;4287701;33;22058;-84
2022/01/04 03:52:45;;;;;;;;;;;8.80;99.90;;;;;;4274392;33;35055;-84
2022/01/04 03:55:18;;;;;;;;;;;8.80;99.90;;;;;;4274349;33;31932;-84
2022/01/04 03:57:47;;;;;;;;;;;8.70;99.90;;;;;;4275036;33;32947;-84
2022/01/04 04:00:15;;;;;;;;;;;8.80;99.90;;;;;;4274216;33;34335;-84
2022/01/04 04:02:42;;;;;;;;;;;8.70;99.90;;;;;;4262036;33;39361;-84
2022/01/04 04:05:09;;;;;;;;;;;8.70;99.90;;;;;;4262791;33;30411;-84
2022/01/04 04:07:40;;;;;;;;;;;8.70;99.90;;;;;;4274192;33;31233;-84
2022/01/04 04:10:10;;;;;;;;;;;8.70;99.90;;;;;;4276043;33;20404;-85
2022/01/04 04:12:38;;;;;;;;;;;8.70;99.90;;;;;;4274270;33;31536;-84
2022/01/04 04:15:08;;;;;;;;;;;8.70;99.90;;;;;;4274552;33;29566;-84
2022/01/04 04:17:36;;;;;;;;;;;8.80;99.90;;;;;;4288359;33;20010;-84
2022/01/04 04:20:09;;;;;;;;;;;8.70;99.90;;;;;;4274203;33;42753;-85
2022/01/04 04:22:38;;;;;;;;;;;8.70;99.90;;;;;;4274846;33;28831;-84
2022/01/04 04:25:09;;;;;;;;;;;8.70;99.90;;;;;;4262491;33;39408;-84
2022/01/04 04:27:36;;;;;;;;;;;8.70;99.90;;;;;;4274140;33;38767;-84
2022/01/04 04:30:04;;;;;;;;;;;8.70;99.90;;;;;;4273680;33;38102;-84
2022/01/04 04:32:31;;;;;;;;;;;8.70;99.90;;;;;;4262047;33;35754;-85
2022/01/04 04:34:58;;;;;;;;;;;8.70;99.90;;;;;;4264721;33;33879;-84
2022/01/04 04:37:25;;;;;;;;;;;8.70;99.90;;;;;;4277038;33;25474;-84
2022/01/04 04:40:01;;;;;;;;;;;8.70;99.90;;;;;;4277394;33;28867;-84
2022/01/04 04:42:28;;;;;;;;;;;8.70;99.90;;;;;;4277282;33;33554;-85
2022/01/04 04:44:59;;;;;;;;;;;8.70;99.90;;;;;;4266535;33;20022;-85
2022/01/04 04:47:26;;;;;;;;;;;8.70;99.90;;;;;;4290200;33;34173;-85
2022/01/04 04:49:57;;;;;;;;;;;8.70;99.90;;;;;;4277349;33;35286;-84
2022/01/04 04:52:27;;;;;;;;;;;8.70;99.90;;;;;;4290452;33;20413;-84
2022/01/04 04:54:58;;;;;;;;;;;8.70;99.90;;;;;;4276415;33;32846;-84
2022/01/04 04:57:25;;;;;;;;;;;8.70;99.90;;;;;;4264914;33;30019;-85
2022/01/04 04:59:52;;;;;;;;;;;8.80;99.90;;;;;;4290175;33;29246;-85
2022/01/04 05:02:22;;;;;;;;;;;8.80;99.90;;;;;;4277021;33;30992;-84
2022/01/04 05:04:49;;;;;;;;;;;8.70;99.90;;;;;;4277129;33;31167;-84
2022/01/04 05:07:19;;;;;;;;;;;8.70;99.90;;;;;;4290076;33;25531;-85
2022/01/04 05:09:52;;;;;;;;;;;8.70;99.90;;;;;;4289436;33;38119;-84
2022/01/04 05:12:22;;;;;;;;;;;8.70;99.90;;;;;;4289776;33;29659;-85
2022/01/04 05:14:52;;;;;;;;;;;8.70;99.90;;;;;;4276231;33;39764;-84
2022/01/04 05:17:25;;;;;;;;;;;8.70;99.90;;;;;;4264209;33;44912;-84
2022/01/04 05:19:52;;;;;;;;;;;8.70;99.90;;;;;;4276659;33;26255;-84
2022/01/04 05:22:23;;;;;;;;;;;8.80;99.90;;;;;;4276473;33;29244;-84
2022/01/04 05:24:56;;;;;;;;;;;8.70;99.90;;;;;;4264592;33;36921;-85
2022/01/04 05:27:23;;;;;;;;;;;8.70;99.90;;;;;;4289494;33;26568;-84
2022/01/04 05:29:50;;;;;;;;;;;8.80;99.90;;;;;;4289505;33;22519;-84
2022/01/04 05:32:17;;;;;;;;;;;8.70;99.90;;;;;;4289603;33;27923;-84
2022/01/04 05:34:47;;;;;;;;;;;8.80;99.90;;;;;;4289154;33;43545;-84
2022/01/04 05:37:20;;;;;;;;;;;8.80;99.90;;;;;;4276146;33;37048;-84
2022/01/04 05:39:50;;;;;;;;;;;8.80;99.90;;;;;;4264901;33;24370;-84
2022/01/04 05:42:20;;;;;;;;;;;8.70;99.90;;;;;;4276775;33;27656;-85
2022/01/04 05:44:50;;;;;;;;;;;8.70;99.90;;;;;;4275658;33;23297;-85
2022/01/04 05:47:17;;;;;;;;;;;8.80;99.90;;;;;;4264110;33;30248;-84
2022/01/04 05:49:45;;;;;;;;;;;8.80;99.90;;;;;;4275955;33;35153;-85
2022/01/04 05:52:14;;;;;;;;;;;8.70;99.90;;;;;;4288382;33;43712;-84
2022/01/04 05:54:43;;;;;;;;;;;8.80;99.90;;;;;;4289519;33;20014;-84
2022/01/04 05:57:13;;;;;;;;;;;8.70;99.90;;;;;;4277007;33;20024;-84
2022/01/04 05:59:40;;;;;;;;;;;8.70;99.90;;;;;;4276537;33;20022;-84
2022/01/04 06:02:07;;;;;;;;;;;8.80;99.90;;;;;;4289496;33;20016;-84
2022/01/04 06:04:35;;;;;;;;;;;8.70;99.90;;;;;;4264783;33;19999;-84
2022/01/04 06:07:02;;;;;;;;;;;8.70;99.90;;;;;;4264441;33;20389;-84
2022/01/04 06:09:39;;;;;;;;;;;8.80;99.90;;;;;;4276371;33;20022;-84
2022/01/04 06:14:50;;;;;;;;;;;8.70;99.90;;;;;;4276860;33;20416;-84
2022/01/04 06:14:55;;;;;;;;;;;8.80;99.90;;;;;;4288565;33;20371;-84
2022/01/04 06:17:32;;;;;;;;;;;8.80;99.90;;;;;;4289218;33;20021;-84
2022/01/04 06:19:59;;;;;;;;;;;8.80;99.90;;;;;;4276594;33;20025;-84
2022/01/04 06:22:27;;;;;;;;;;;8.80;99.90;;;;;;4276576;33;20062;-84
2022/01/04 06:24:55;;;;;;;;;;;8.80;99.90;;;;;;4289419;33;20007;-84
2022/01/04 06:27:23;;;;;;;;;;;8.70;99.90;;;;;;4264847;33;20478;-84
2022/01/04 06:29:50;;;;;;;;;;;8.70;99.90;;;;;;4275701;33;20015;-84
2022/01/04 06:32:18;;;;;;;;;;;8.70;99.90;;;;;;4289271;33;20024;-84
2022/01/04 06:34:45;;;;;;;;;;;8.80;99.90;;;;;;4276286;33;19994;-84
2022/01/04 06:37:12;;;;;;;;;;;8.70;99.90;;;;;;4275649;33;20010;-84
2022/01/04 06:39:40;;;;;;;;;;;8.70;99.90;;;;;;4275856;33;19999;-84
2022/01/04 06:42:07;;;;;;;;;;;8.70;99.90;;;;;;4264505;33;20015;-84
2022/01/04 06:44:37;;;;;;;;;;;8.70;99.90;;;;;;4289117;33;20014;-84
2022/01/04 06:47:05;;;;;;;;;;;8.70;99.90;;;;;;4276103;33;20028;-84
2022/01/04 06:49:32;;;;;;;;;;;8.70;99.90;;;;;;4264112;33;20037;-84
2022/01/04 06:52:05;;;;;;;;;;;8.70;99.90;;;;;;4276802;33;20018;-84
2022/01/04 06:57:37;;;;;;;;;;;8.70;99.90;;;;;;4274362;33;46272;-84
2022/01/04 07:00:07;;;;;;;;;;;8.70;99.90;;;;;;4263954;33;20409;-84
2022/01/04 07:02:35;;;;;;;;;;;8.70;99.90;;;;;;4262474;33;44595;-84
2022/01/04 07:05:05;;;;;;;;;;;8.70;99.90;;;;;;4262762;33;46147;-83
2022/01/04 07:07:35;;;;;;;;;;;8.60;99.90;;;;;;4274488;33;41839;-84
2022/01/04 07:10:05;;;;;;;;;;;8.70;99.90;;;;;;4275711;33;20084;-84
2022/01/04 07:12:32;;;;;;;;;;;8.70;99.90;;;;;;4275049;33;33088;-83
2022/01/04 07:15:00;;;;;;;;;;;8.70;99.90;;;;;;4274523;33;28661;-84
2022/01/04 07:17:34;;;;;;;;;;;8.70;99.90;;;;;;4262552;33;42107;-86
2022/01/04 07:20:02;;;;;;;;;;;8.70;99.90;;;;;;4275083;33;29722;-84
2022/01/04 07:22:29;;;;;;;;;;;8.70;99.90;;;;;;4287735;33;38165;-84
2022/01/04 07:25:01;;;;;;;;;;;8.70;99.90;;;;;;4274195;33;41657;-84
2022/01/04 07:27:28;;;;;;;;;;;8.70;99.90;;;;;;4288048;33;29107;-83
2022/01/04 07:29:55;;;;;;;;;;;8.60;99.90;;;;;;4274823;33;33486;-83
2022/01/04 07:32:22;;;;;;;;;;;8.60;99.90;;;;;;4274810;33;32159;-83
2022/01/04 07:34:49;;;;;;;;;;;8.60;99.90;;;;;;4274717;33;32226;-84
2022/01/04 07:37:16;;;;;;;;;;;8.70;99.90;;;;;;4274538;33;41726;-83
2022/01/04 07:39:43;;;;;;;;;;;8.60;99.90;;;;;;4274812;33;36207;-83
2022/01/04 07:42:11;;;;;;;;;;;8.70;99.90;;;;;;4274316;33;34406;-84
2022/01/04 07:44:38;;;;;;;;;;;8.70;99.90;;;;;;4274050;33;36169;-85
2022/01/04 07:47:05;;;;;;;;;;;8.60;99.90;;;;;;4274685;33;34301;-84
2022/01/04 07:49:32;;;;;;;;;;;8.60;99.90;;;;;;4274980;33;31440;-84
2022/01/04 07:52:00;;;;;;;;;;;8.60;99.90;;;;;;4287749;33;39529;-84
2022/01/04 07:54:27;;;;;;;;;;;8.60;99.90;;;;;;4274191;33;40289;-83
2022/01/04 07:56:55;;;;;;;;;;;8.60;99.90;;;;;;4273950;33;42313;-83
2022/01/04 07:59:22;;;;;;;;;;;8.60;99.90;;;;;;4274820;33;20010;-84
2022/01/04 08:01:51;;;;;;;;;;;8.60;99.90;;;;;;4286958;33;37559;-84
2022/01/04 08:04:19;;;;;;;;;;;8.60;99.90;;;;;;4273999;33;37272;-84
2022/01/04 08:06:46;;;;;;;;;;;8.60;99.90;;;;;;4262533;33;32882;-84
2022/01/04 08:09:15;;;;;;;;;;;8.60;99.90;;;;;;4273310;33;42583;-84
2022/01/04 08:11:42;;;;;;;;;;;8.60;99.90;;;;;;4274143;33;41687;-84
2022/01/04 08:14:13;;;;;;;;;;;8.60;99.90;;;;;;4275734;33;20059;-84
2022/01/04 08:16:53;;;;;;;;;;;8.60;99.90;;;;;;4274362;33;38815;-84
2022/01/04 08:19:20;;;;;;;;;;;8.60;99.90;;;;;;4288214;33;19998;-84
2022/01/04 08:21:48;;;;;;;;;;;8.60;99.90;;;;;;4275372;33;20018;-84
2022/01/04 08:24:15;;;;;;;;;;;8.60;99.90;;;;;;4274999;33;20040;-84
2022/01/04 08:26:42;;;;;;;;;;;8.60;99.90;;;;;;4274898;33;20018;-84
2022/01/04 08:29:12;;;;;;;;;;;8.60;99.90;;;;;;4274423;33;39297;-83
2022/01/04 08:31:41;;;;;;;;;;;8.60;99.90;;;;;;4274412;33;33702;-84
2022/01/04 08:34:08;;;;;;;;;;;8.60;99.90;;;;;;4274312;33;33832;-84
2022/01/04 08:36:38;;;;;;;;;;;8.60;99.90;;;;;;4274205;33;38835;-84
2022/01/04 08:39:14;;;;;;;;;;;8.60;99.90;;;;;;4274755;33;22572;-84
2022/01/04 08:41:42;;;;;;;;;;;8.60;99.90;;;;;;4274102;33;40319;-84
2022/01/04 08:44:09;;;;;;;;;;;8.60;99.90;;;;;;4273962;33;37598;-84
2022/01/04 08:46:36;;;;;;;;;;;8.60;99.90;;;;;;4273684;33;40205;-83
2022/01/04 08:49:07;;;;;;;;;;;8.60;99.90;;;;;;4261982;33;43859;-83
2022/01/04 08:51:37;;;;;;;;;;;8.60;99.90;;;;;;4262033;33;40366;-84
2022/01/04 08:54:07;;;;;;;;;;;8.60;99.90;;;;;;4274063;33;34878;-83
2022/01/04 08:56:34;;;;;;;;;;;8.60;99.90;;;;;;4286230;33;31919;-84
2022/01/04 08:59:03;;;;;;;;;;;8.60;99.90;;;;;;4287036;33;26849;-83
2022/01/04 09:01:31;;;;;;;;;;;8.60;99.90;;;;;;4273844;33;42560;-84
2022/01/04 09:03:59;;;;;;;;;;;8.60;99.90;;;;;;4287034;33;30024;-83
2022/01/04 09:06:26;;;;;;;;;;;8.60;99.90;;;;;;4273727;33;43623;-83
2022/01/04 09:08:55;;;;;;;;;;;8.60;99.90;;;;;;4273569;33;39145;-83
2022/01/04 09:11:23;;;;;;;;;;;8.60;99.90;;;;;;4275100;33;20009;-84
2022/01/04 09:14:00;;;;;;;;;;;8.60;99.90;;;;;;4262838;33;20003;-83
2022/01/04 09:19:13;;;;;;;;;;;8.60;99.90;;;;;;4287912;33;28549;-84
2022/01/04 09:21:40;;;;;;;;;;;8.50;99.90;;;;;;4289025;33;35852;-83
2022/01/04 09:24:07;;;;;;;;;;;8.50;99.90;;;;;;4276245;33;34260;-83
2022/01/04 09:26:34;;;;;;;;;;;8.50;99.90;;;;;;4289011;33;39562;-83
2022/01/04 09:29:07;;;;;;;;;;;8.50;99.90;;;;;;4276603;33;30914;-83
2022/01/04 09:31:35;;;;;;;;;;;8.50;99.90;;;;;;4275905;33;38166;-83
2022/01/04 09:34:07;;;;;;;;;;;8.50;99.90;;;;;;4289772;33;28426;-83
2022/01/04 09:36:39;;;;;;;;;;;8.50;99.90;;;;;;4276112;33;31312;-83
2022/01/04 09:39:09;;;;;;;;;;;8.50;99.90;;;;;;4289233;33;43708;-83
2022/01/04 09:41:38;;;;;;;;;;;8.50;99.90;;;;;;4276057;33;38683;-84
2022/01/04 09:44:08;;;;;;;;;;;8.50;99.90;;;;;;4288791;33;44093;-84
2022/01/04 09:46:35;;;;;;;;;;;8.50;99.90;;;;;;4289764;33;27187;-84
2022/01/04 09:49:02;;;;;;;;;;;8.50;99.90;;;;;;4276117;33;23648;-83
2022/01/04 09:51:30;;;;;;;;;;;8.50;99.90;;;;;;4264191;33;33778;-84
2022/01/04 09:54:00;;;;;;;;;;;8.50;99.90;;;;;;4275562;33;40669;-83
2022/01/04 09:56:27;;;;;;;;;;;8.50;99.90;;;;;;4288893;33;38744;-84
2022/01/04 09:58:54;;;;;;;;;;;8.50;99.90;;;;;;4275522;33;41640;-84
2022/01/04 10:01:22;;;;;;;;;;;8.50;99.90;;;;;;4275349;33;43145;-83
2022/01/04 10:04:10;;;;;;;;;;;8.50;99.90;;;;;;4276534;33;20020;-82
2022/01/04 10:06:39;;;;;;;;;;;8.50;99.90;;;;;;4289663;33;20006;-83
2022/01/04 10:09:12;;;;;;;;;;;8.40;99.90;;;;;;4276881;33;20018;-84
2022/01/04 10:11:42;;;;;;;;;;;8.50;99.90;;;;;;4276900;33;20016;-84
2022/01/04 10:14:26;;;;;;;;;;;8.50;99.90;;;;;;4264478;33;20018;-83
2022/01/04 10:16:58;;;;;;;;;;;8.40;99.90;;;;;;4276524;33;20007;-83
2022/01/04 10:19:36;;;;;;;;;;;8.40;99.90;;;;;;4289373;33;20066;-84
2022/01/04 10:22:15;;;;;;;;;;;8.40;99.90;;;;;;4265483;33;20388;-84
2022/01/04 10:24:43;;;;;;;;;;;8.40;99.90;;;;;;4263953;33;20011;-84
2022/01/04 10:27:31;;;;;;;;;;;8.50;99.90;;;;;;4276304;33;20352;-84
2022/01/04 10:30:08;;;;;;;;;;;8.40;99.90;;;;;;4276225;33;20017;-84
2022/01/04 10:32:45;;;;;;;;;;;8.40;99.90;;;;;;4276329;33;20082;-84
2022/01/04 10:35:19;;;;;;;;;;;8.40;99.90;;;;;;4289503;33;20017;-83
2022/01/04 10:37:46;;;;;;;;;;;8.40;99.90;;;;;;4288962;33;20041;-83
2022/01/04 10:40:14;;;;;;;;;;;8.40;99.90;;;;;;4289182;33;20029;-83
2022/01/04 10:42:41;;;;;;;;;;;8.40;99.90;;;;;;4275990;33;20025;-84
2022/01/04 10:45:25;;;;;;;;;;;8.40;99.90;;;;;;4289257;33;20048;-83
2022/01/04 10:47:52;;;;;;;;;;;8.40;99.90;;;;;;4276308;33;19998;-83
2022/01/04 10:50:32;;;;;;;;;;;8.40;99.90;;;;;;4275947;33;20013;-83
2022/01/04 10:53:00;;;;;;;;;;;8.40;99.90;;;;;;4289011;33;20033;-84
2022/01/04 10:55:32;;;;;;;;;;;8.40;99.90;;;;;;4288764;33;20054;-84
2022/01/04 10:57:59;;;;;;;;;;;8.40;99.90;;;;;;4275930;33;20046;-84
2022/01/04 11:00:27;;;;;;;;;;;8.40;99.90;;;;;;4289247;33;20011;-84
2022/01/04 11:02:58;;;;;;;;;;;8.40;99.90;;;;;;4275741;33;20028;-83
2022/01/04 11:05:28;;;;;;;;;;;8.40;99.90;;;;;;4275385;33;20057;-84
2022/01/04 11:07:56;;;;;;;;;;;8.40;99.90;;;;;;4276065;33;20086;-83
2022/01/04 11:10:25;;;;;;;;;;;8.40;99.90;;;;;;4288461;33;20018;-83
2022/01/04 11:12:53;;;;;;;;;;;8.40;99.90;;;;;;4275852;33;20074;-83
2022/01/04 11:15:20;;;;;;;;;;;8.40;99.90;;;;;;4275100;33;20029;-84
2022/01/04 11:17:47;;;;;;;;;;;8.40;99.90;;;;;;4263533;33;20002;-83
2022/01/04 11:20:14;;;;;;;;;;;8.40;99.90;;;;;;4275753;33;20018;-84
2022/01/04 11:22:44;;;;;;;;;;;8.40;99.90;;;;;;4275482;33;20026;-83
2022/01/04 11:25:13;;;;;;;;;;;8.40;99.90;;;;;;4275789;33;20396;-84
2022/01/04 11:27:41;;;;;;;;;;;8.40;99.90;;;;;;4276057;33;20062;-84
2022/01/04 11:30:17;;;;;;;;;;;8.40;99.90;;;;;;4275248;33;20073;-83
2022/01/04 11:32:45;;;;;;;;;;;8.40;99.90;;;;;;4275288;33;20015;-84
2022/01/04 11:35:16;;;;;;;;;;;8.40;99.90;;;;;;4275262;33;20135;-84
2022/01/04 11:37:53;;;;;;;;;;;8.40;99.90;;;;;;4275124;33;20002;-84
2022/01/04 11:40:22;;;;;;;;;;;8.40;99.90;;;;;;4288352;33;20025;-84
2022/01/04 11:42:49;;;;;;;;;;;8.40;99.90;;;;;;4287354;33;20006;-83
2022/01/04 11:45:36;;;;;;;;;;;8.40;99.90;;;;;;4275055;33;20128;-83
2022/01/04 11:48:04;;;;;;;;;;;8.40;99.90;;;;;;4275498;33;20399;-83
2022/01/04 11:50:37;;;;;;;;;;;8.40;99.90;;;;;;4288293;33;20025;-83
2022/01/04 11:53:09;;;;;;;;;;;8.40;99.90;;;;;;4288356;33;20011;-83
2022/01/04 11:55:37;;;;;;;;;;;8.40;99.90;;;;;;4275103;33;20065;-84
2022/01/04 11:58:13;;;;;;;;;;;8.40;99.90;;;;;;4287107;33;19998;-83
2022/01/04 12:00:43;;;;;;;;;;;8.40;99.90;;;;;;4275496;33;20003;-83
2022/01/04 12:03:10;;;;;;;;;;;8.50;99.90;;;;;;4287382;33;20010;-83
2022/01/04 12:05:58;;;;;;;;;;;8.50;99.90;;;;;;4262972;33;20009;-83
2022/01/04 12:08:28;;;;;;;;;;;8.40;99.90;;;;;;4275037;33;20013;-84
2022/01/04 12:10:57;;;;;;;;;;;8.40;99.90;;;;;;4275450;33;20416;-84
2022/01/04 12:13:25;;;;;;;;;;;8.40;99.90;;;;;;4288018;33;20044;-84
2022/01/04 12:16:03;;;;;;;;;;;8.40;99.90;;;;;;4286987;33;20405;-84
2022/01/04 12:18:34;;;;;;;;;;;8.40;99.90;;;;;;4274775;33;20045;-85
2022/01/04 12:21:03;;;;;;;;;;;8.40;99.90;;;;;;4274122;33;20019;-84
2022/01/04 12:23:31;;;;;;;;;;;8.40;99.90;;;;;;4287728;33;20010;-84
2022/01/04 12:26:16;;;;;;;;;;;8.50;99.90;;;;;;4274832;33;20014;-83
2022/01/04 12:28:55;;;;;;;;;;;8.40;99.90;;;;;;4263111;33;20017;-83
2022/01/04 12:31:24;;;;;;;;;;;8.50;99.90;;;;;;4274747;33;20007;-84
2022/01/04 12:33:59;;;;;;;;;;;8.50;99.90;;;;;;4288337;33;20014;-83
2022/01/04 12:36:27;;;;;;;;;;;8.50;99.90;;;;;;4274554;33;20050;-83
2022/01/04 12:38:56;;;;;;;;;;;8.50;99.90;;;;;;4274919;33;20104;-84
2022/01/04 12:41:23;;;;;;;;;;;8.50;99.90;;;;;;4274461;33;20032;-83
2022/01/04 12:43:51;;;;;;;;;;;8.50;99.90;;;;;;4262646;33;19998;-84
2022/01/04 12:46:29;;;;;;;;;;;8.50;99.90;;;;;;4274709;33;20007;-84
2022/01/04 12:48:59;;;;;;;;;;;8.50;99.90;;;;;;4274375;33;20002;-83
2022/01/04 12:51:31;;;;;;;;;;;8.50;99.90;;;;;;4274551;33;20430;-83
2022/01/04 12:54:00;;;;;;;;;;;8.50;99.90;;;;;;4274986;33;19999;-83
2022/01/04 12:56:31;;;;;;;;;;;8.50;99.90;;;;;;4276940;33;20070;-83
2022/01/04 12:58:59;;;;;;;;;;;8.50;99.90;;;;;;4290688;33;20029;-83
2022/01/04 13:01:27;;;;;;;;;;;8.50;99.90;;;;;;4276773;33;20018;-84
2022/01/04 13:03:56;;;;;;;;;;;8.50;99.90;;;;;;4290512;33;20051;-83
2022/01/04 13:06:27;;;;;;;;;;;8.50;99.90;;;;;;4290049;33;20024;-83
2022/01/04 13:08:55;;;;;;;;;;;8.50;99.90;;;;;;4277343;33;19994;-83
2022/01/04 13:11:24;;;;;;;;;;;8.50;99.90;;;;;;4277095;33;20017;-83
2022/01/04 13:13:55;;;;;;;;;;;8.50;99.90;;;;;;4277766;33;20428;-84
2022/01/04 13:16:30;;;;;;;;;;;8.50;99.90;;;;;;4290420;33;20017;-84
2022/01/04 13:19:11;;;;;;;;;;;8.50;99.90;;;;;;4277508;33;20078;-83
2022/01/04 13:21:48;;;;;;;;;;;8.50;99.90;;;;;;4277208;33;20421;-84
2022/01/04 13:24:38;;;;;;;;;;;8.50;99.90;;;;;;4290467;33;20006;-83
2022/01/04 13:27:20;;;;;;;;;;;8.50;99.90;;;;;;4264355;33;44841;-84
2022/01/04 13:29:49;;;;;;;;;;;8.50;99.90;;;;;;4290007;33;20494;-84
2022/01/04 13:32:17;;;;;;;;;;;8.50;99.90;;;;;;4290408;33;20015;-83
2022/01/04 13:34:44;;;;;;;;;;;8.50;99.90;;;;;;4277132;33;20018;-84
2022/01/04 13:37:14;;;;;;;;;;;8.50;99.90;;;;;;4276871;33;20024;-83
2022/01/04 13:39:48;;;;;;;;;;;8.50;99.90;;;;;;4277718;33;20010;-83
2022/01/04 13:42:24;;;;;;;;;;;8.50;99.90;;;;;;4277265;33;20099;-84
2022/01/04 13:44:59;;;;;;;;;;;8.50;99.90;;;;;;4277548;33;20390;-84
2022/01/04 13:47:34;;;;;;;;;;;8.50;99.90;;;;;;4277057;33;20018;-83
2022/01/04 13:50:30;;;;;;;;;;;8.50;99.90;;;;;;4277340;33;20042;-83
2022/01/04 13:52:59;;;;;;;;;;;8.40;99.90;;;;;;4275676;33;20125;-84
2022/01/04 13:55:41;;;;;;;;;;;8.50;99.90;;;;;;4276580;33;20007;-84
2022/01/04 13:58:27;;;;;;;;;;;8.50;99.90;;;;;;4277120;33;20020;-84
2022/01/04 14:00:58;;;;;;;;;;;8.50;99.90;;;;;;4276083;33;26871;-83
2022/01/04 14:03:28;;;;;;;;;;;8.50;99.90;;;;;;4275531;33;43498;-83
2022/01/04 14:06:04;;;;;;;;;;;8.40;99.90;;;;;;4264252;33;20043;-83
2022/01/04 14:08:49;;;;;;;;;;;8.50;99.90;;;;;;4289052;33;36383;-84
2022/01/04 14:11:22;;;;;;;;;;;8.40;99.90;;;;;;4276602;33;20007;-84
2022/01/04 14:13:50;;;;;;;;;;;8.40;99.90;;;;;;4276858;33;20010;-84
2022/01/04 14:16:17;;;;;;;;;;;8.40;99.90;;;;;;4276718;33;20022;-83
2022/01/04 14:19:08;;;;;;;;;;;8.40;99.90;;;;;;4276743;33;20356;-83
2022/01/04 14:21:58;;;;;;;;;;;8.50;99.90;;;;;;4263947;33;40115;-83
2022/01/04 14:24:46;;;;;;;;;;;8.40;99.90;;;;;;4270185;33;37651;-83
2022/01/04 14:27:42;;;;;;;;;;;8.40;99.90;;;;;;4275315;33;39375;-83
2022/01/04 14:30:11;;;;;;;;;;;8.40;99.90;;;;;;4252997;33;27772;-83
2022/01/04 14:32:38;;;;;;;;;;;8.40;99.90;;;;;;4275678;33;32596;-84
2022/01/04 14:35:08;;;;;;;;;;;8.40;99.90;;;;;;4264123;33;19998;-83
2022/01/04 14:37:37;;;;;;;;;;;8.50;99.90;;;;;;4263518;33;36011;-84
2022/01/04 14:40:05;;;;;;;;;;;8.40;99.90;;;;;;4274785;33;42262;-83
2022/01/04 14:42:32;;;;;;;;;;;8.40;99.90;;;;;;4275443;33;32912;-83
2022/01/04 14:45:02;;;;;;;;;;;8.40;99.90;;;;;;4263454;33;41098;-78
2022/01/04 14:47:29;;;;;;;;;;;8.40;99.90;;;;;;4274816;33;37137;-76
2022/01/04 14:49:57;;;;;;;;;;;8.40;99.90;;;;;;4287692;33;42232;-76
2022/01/04 14:52:24;;;;;;;;;;;8.40;99.90;;;;;;4287821;33;43206;-77
2022/01/04 14:54:52;;;;;;;;;;;8.40;99.90;;;;;;4274920;33;41709;-77
2022/01/04 14:57:23;;;;;;;;;;;8.40;99.90;;;;;;4288280;33;34540;-77